KBWG

Bowling Green-Warren County Regional Airport

Bowling Green, Kentucky, USA
KBWG 212320Z 2200/2224 09009KT P6SM SCT250 FM220800 13007KT P6SM SCT250 WS020/19040KT FM221500 17013G25KT P6SM SCT200
Issued Valid From Valid To
Jan-21 @ 23:20 UTC
(2 hours ago)
Jan-22 @ 00:00 UTC
(55 minutes ago)
Jan-23 @ 00:00 UTC
(in 23 hours)
Jan-22 @ 00:00 to Jan-22 @ 08:00
KBWG 212320Z 2200/2224 09009KT P6SM SCT250
Wind Visibility Clouds
90° at 9 knots Greater than 6 miles
  • Scattered at 25,000' AGL
From Jan-22 @ 08:00 to Jan-22 @ 15:00
FM220800 13007KT P6SM SCT250 WS020/19040KT
Wind Visibility Clouds
130° at 7 knots
 Wind shear 2,000' AGL from 190° at 40 knots
Greater than 6 miles
  • Scattered at 25,000' AGL
From Jan-22 @ 15:00 to Jan-23 @ 00:00
FM221500 17013G25KT P6SM SCT200
Wind Visibility Clouds
170° at 13 knots
 Gusting to 25 knots
Greater than 6 miles
  • Scattered at 20,000' AGL
KBWG 212320Z 2200/2224 09009KT P6SM SCT250 FM220800 13007KT P6SM SCT250 WS020/19040KT FM221500 17013G25KT P6SM SCT200
Issued Jan-21 @ 23:20 UTC
(2 hours ago)
Valid From Jan-22 @ 00:00 UTC
(55 minutes ago)
Valid To Jan-23 @ 00:00 UTC
(in 23 hours)
Jan-22 @ 00:00 - Jan-22 @ 08:00
Wind Visibility
90° at 9 knots Greater than 6 miles
Clouds
  • Scattered at 25,000' AGL
From Jan-22 @ 08:00 - Jan-22 @ 15:00
Wind Visibility
130° at 7 knots Greater than 6 miles
Clouds
  • Scattered at 25,000' AGL
From Jan-22 @ 15:00 - Jan-23 @ 00:00
Wind Visibility
170° at 13 knots
 Gusting to 25 knots
Greater than 6 miles
Clouds
  • Scattered at 20,000' AGL